Time;durP1;ratioP1;P1;durP2;ratioP2;P2;SDS_P1;SDS_P2;PMS_P1;PMS_P2;Temp;Humidity;BMP_temperature;BMP_pressure;BME280_temperature;BME280_humidity;BME280_pressure;Samples;Min_cycle;Max_cycle;Signal;HPM_P1;HPM_P2
2022/05/22 00:00:31;;;;;;;0.30;0.30;;;;;;;18.21;61.91;95661.75;4384034;32;20204;-61
2022/05/22 00:02:58;;;;;;;0.20;0.20;;;;;;;18.27;61.67;95663.09;4373224;32;20247;-61
2022/05/22 00:05:24;;;;;;;0.77;0.73;;;;;;;18.42;61.69;95656.28;4362432;32;20193;-61
2022/05/22 00:07:50;;;;;;;0.80;0.80;;;;;;;18.40;61.06;95659.31;4368208;32;20245;-61
2022/05/22 00:10:16;;;;;;;0.33;0.33;;;;;;;18.27;61.53;95660.41;4373543;32;20243;-61
2022/05/22 00:12:44;;;;;;;0.30;0.30;;;;;;;18.29;61.00;95657.41;4371749;32;20174;-61
2022/05/22 00:15:13;;;;;;;0.20;0.20;;;;;;;18.33;61.99;95656.37;4361651;32;20281;-61
2022/05/22 00:17:39;;;;;;;0.87;0.40;;;;;;;18.20;62.05;95652.12;4356043;32;20271;-61
2022/05/22 00:20:05;;;;;;;0.20;0.20;;;;;;;18.13;61.83;95646.50;4353975;32;20199;-61
2022/05/22 00:22:32;;;;;;;0.10;0.10;;;;;;;18.16;62.71;95649.31;4343021;32;20230;-61
2022/05/22 00:24:57;;;;;;;0.37;0.37;;;;;;;18.21;62.09;95645.62;4338375;32;20196;-61
2022/05/22 00:27:23;;;;;;;0.70;0.70;;;;;;;18.26;61.40;95647.31;4382344;32;20202;-61
2022/05/22 00:29:48;;;;;;;0.40;0.40;;;;;;;18.19;63.42;95647.88;4360208;32;20188;-61
2022/05/22 00:32:15;;;;;;;0.50;0.50;;;;;;;18.29;64.11;95650.09;4369803;32;20239;-61
2022/05/22 00:34:40;;;;;;;0.30;0.20;;;;;;;18.32;62.91;95640.59;4372833;32;20230;-61
2022/05/22 00:37:08;;;;;;;1.00;0.97;;;;;;;18.09;62.59;95642.91;4369053;32;20188;-61
2022/05/22 00:39:35;;;;;;;0.50;0.50;;;;;;;18.10;63.16;95639.09;4372955;32;20199;-61
2022/05/22 00:42:03;;;;;;;2.10;1.27;;;;;;;18.04;63.79;95637.78;4357579;32;20201;-61
2022/05/22 00:44:30;;;;;;;0.60;0.60;;;;;;;18.09;63.38;95630.25;4389855;32;20207;-61
2022/05/22 00:46:55;;;;;;;0.57;0.50;;;;;;;18.13;63.50;95627.69;4391572;32;20240;-61
2022/05/22 00:49:22;;;;;;;0.83;0.83;;;;;;;17.99;64.54;95627.25;4381162;32;20184;-61
2022/05/22 00:52:04;;;;;;;0.40;0.40;;;;;;;17.89;64.57;95617.69;4374744;32;20176;-61
2022/05/22 00:54:36;;;;;;;1.60;0.93;;;;;;;17.91;64.66;95614.69;4370204;32;20192;-60
2022/05/22 00:57:09;;;;;;;0.77;0.77;;;;;;;17.99;65.05;95613.81;4381087;32;20203;-62
2022/05/22 00:59:39;;;;;;;0.83;0.50;;;;;;;17.95;64.08;95618.28;4380338;32;20199;-62
2022/05/22 01:02:05;;;;;;;0.30;0.30;;;;;;;17.82;65.09;95601.38;4386886;32;20203;-61
2022/05/22 01:04:33;;;;;;;0.80;0.80;;;;;;;17.85;65.02;95601.50;4383745;32;20198;-61
2022/05/22 01:06:59;;;;;;;0.93;0.53;;;;;;;17.83;64.52;95606.41;4383117;32;20199;-61
2022/05/22 01:09:25;;;;;;;0.33;0.33;;;;;;;17.76;64.79;95610.75;4384539;32;20201;-61
2022/05/22 01:11:54;;;;;;;0.60;0.60;;;;;;;17.99;65.00;95617.28;4384647;32;20188;-61
2022/05/22 01:14:22;;;;;;;0.50;0.50;;;;;;;18.08;65.78;95604.53;4392826;32;20192;-62
2022/05/22 01:16:50;;;;;;;0.63;0.63;;;;;;;18.17;64.04;95604.44;4381421;32;20256;-61
2022/05/22 01:19:19;;;;;;;0.30;0.30;;;;;;;18.18;65.93;95609.47;4383237;32;20185;-61
2022/05/22 01:22:05;;;;;;;0.57;0.57;;;;;;;18.12;63.88;95607.34;4375319;32;20204;-61
2022/05/22 01:24:31;;;;;;;0.33;0.33;;;;;;;18.09;64.71;95610.69;4368792;32;20192;-61
2022/05/22 01:27:01;;;;;;;0.47;0.47;;;;;;;18.07;65.58;95604.88;4378711;32;20188;-61
2022/05/22 01:29:26;;;;;;;0.83;0.63;;;;;;;17.95;64.06;95610.22;4381477;32;20197;-61
2022/05/22 01:31:51;;;;;;;5.77;1.40;;;;;;;18.09;65.23;95616.06;4378792;32;20204;-61
2022/05/22 01:34:17;;;;;;;23.87;0.87;;;;;;;18.12;64.23;95626.13;4388482;32;20176;-61
2022/05/22 01:36:42;;;;;;;0.33;0.33;;;;;;;17.96;64.03;95628.69;4394428;32;20189;-61
2022/05/22 01:39:08;;;;;;;0.37;0.37;;;;;;;17.97;64.24;95629.47;4374317;32;20254;-61
2022/05/22 01:41:34;;;;;;;0.53;0.53;;;;;;;17.99;65.08;95628.03;4370615;32;20200;-61
2022/05/22 01:43:59;;;;;;;0.60;0.40;;;;;;;17.98;64.63;95621.09;4393750;32;20191;-61
2022/05/22 01:46:25;;;;;;;8.30;0.90;;;;;;;17.79;64.44;95621.59;4388670;32;20260;-61
2022/05/22 01:48:50;;;;;;;2.43;0.90;;;;;;;17.63;64.92;95615.25;4382085;32;20198;-62
2022/05/22 01:51:15;;;;;;;0.93;0.73;;;;;;;18.04;66.42;95614.38;4387578;32;20233;-62
2022/05/22 01:53:41;;;;;;;0.60;0.60;;;;;;;17.96;62.78;95615.25;4372183;32;20184;-61
2022/05/22 01:56:06;;;;;;;0.30;0.30;;;;;;;17.72;63.70;95613.28;4387639;32;20216;-61
2022/05/22 01:58:31;;;;;;;0.33;0.33;;;;;;;17.89;65.44;95600.81;4384741;32;20192;-61
2022/05/22 02:00:57;;;;;;;0.40;0.40;;;;;;;17.64;64.46;95602.63;4380255;32;20181;-62
2022/05/22 02:03:22;;;;;;;0.37;0.37;;;;;;;17.78;65.51;95603.16;4374621;32;20246;-61
2022/05/22 02:05:48;;;;;;;0.20;0.20;;;;;;;17.97;66.67;95592.66;4383251;32;20243;-61
2022/05/22 02:08:19;;;;;;;0.50;0.50;;;;;;;17.75;64.02;95593.84;4388031;32;20199;-62
2022/05/22 02:10:47;;;;;;;0.50;0.50;;;;;;;17.52;63.36;95592.62;4363528;32;20184;-61
2022/05/22 02:13:16;;;;;;;0.77;0.77;;;;;;;17.62;65.02;95586.88;4380718;32;20188;-62
2022/05/22 02:15:41;;;;;;;0.60;0.60;;;;;;;17.70;65.38;95583.31;4384434;32;20177;-62
2022/05/22 02:18:07;;;;;;;0.30;0.30;;;;;;;17.92;65.96;95587.50;4386756;32;20196;-61
2022/05/22 02:20:32;;;;;;;1.10;1.10;;;;;;;18.08;64.73;95574.22;4392104;32;20251;-62
2022/05/22 02:22:57;;;;;;;0.53;0.53;;;;;;;17.81;64.91;95581.78;4380567;32;20200;-62
2022/05/22 02:25:41;;;;;;;0.37;0.37;;;;;;;17.77;65.05;95575.53;4380338;32;20185;-61
2022/05/22 02:28:07;;;;;;;0.40;0.40;;;;;;;17.62;63.18;95575.34;4401859;32;20204;-62
2022/05/22 02:30:36;;;;;;;0.10;0.10;;;;;;;17.58;65.26;95571.75;4384250;32;20216;-62
2022/05/22 02:33:03;;;;;;;0.73;0.70;;;;;;;17.59;65.10;95574.09;4388398;32;20245;-61
2022/05/22 02:35:28;;;;;;;0.80;0.50;;;;;;;17.67;65.41;95573.25;4398470;32;20189;-61
2022/05/22 02:37:55;;;;;;;0.70;0.70;;;;;;;17.76;65.46;95568.59;4386265;32;20195;-61
2022/05/22 02:40:23;;;;;;;1.90;0.83;;;;;;;17.92;66.40;95570.63;4376881;32;20197;-61
2022/05/22 02:42:51;;;;;;;0.57;0.57;;;;;;;17.63;65.15;95560.81;4402310;32;20218;-61
2022/05/22 02:45:20;;;;;;;0.50;0.50;;;;;;;17.47;65.13;95568.69;4398032;32;20176;-61
2022/05/22 02:47:46;;;;;;;0.30;0.30;;;;;;;17.47;65.16;95564.09;4383278;32;20173;-62
2022/05/22 02:50:13;;;;;;;0.50;0.50;;;;;;;17.46;66.62;95556.38;4387263;32;20176;-61
2022/05/22 02:52:38;;;;;;;0.47;0.47;;;;;;;17.43;65.76;95551.72;4390007;32;26498;-61
2022/05/22 02:55:05;;;;;;;0.40;0.40;;;;;;;17.33;66.19;95557.47;4382623;32;20237;-61
2022/05/22 02:57:37;;;;;;;0.70;0.70;;;;;;;17.40;65.95;95552.38;4374969;32;20208;-61
2022/05/22 03:00:06;;;;;;;0.10;0.10;;;;;;;17.55;67.34;95553.62;4383020;32;20229;-60
2022/05/22 03:02:32;;;;;;;0.77;0.77;;;;;;;17.56;66.90;95555.97;4383627;32;20188;-61
2022/05/22 03:04:57;;;;;;;1.00;0.50;;;;;;;17.57;66.44;95556.78;4377849;32;20198;-61
2022/05/22 03:07:23;;;;;;;0.20;0.20;;;;;;;17.18;66.02;95561.56;4383195;32;20251;-61
2022/05/22 03:09:48;;;;;;;0.27;0.27;;;;;;;17.29;67.82;95564.59;4369569;32;20215;-61
2022/05/22 03:12:17;;;;;;;0.77;0.77;;;;;;;17.22;67.93;95567.06;4378631;32;20214;-62
2022/05/22 03:14:49;;;;;;;0.83;0.83;;;;;;;17.25;66.70;95561.78;4381059;32;20193;-61
2022/05/22 03:17:15;;;;;;;0.70;0.70;;;;;;;17.24;67.38;95567.50;4378388;32;20185;-62
2022/05/22 03:19:41;;;;;;;1.07;1.07;;;;;;;17.22;66.46;95567.06;4373338;32;20180;-62
2022/05/22 03:22:07;;;;;;;1.07;0.87;;;;;;;17.15;67.26;95565.69;4390752;32;20251;-61
2022/05/22 03:24:34;;;;;;;0.57;0.57;;;;;;;17.14;67.87;95566.78;4395885;32;20248;-61
2022/05/22 03:27:10;;;;;;;0.40;0.40;;;;;;;17.14;65.96;95566.78;4378623;32;20177;-61
2022/05/22 03:29:35;;;;;;;0.83;0.63;;;;;;;17.24;66.27;95562.16;4381568;32;20222;-61
2022/05/22 03:32:01;;;;;;;0.57;0.57;;;;;;;17.11;68.01;95556.72;4385160;32;20188;-62
2022/05/22 03:34:26;;;;;;;0.60;0.60;;;;;;;17.44;68.80;95554.06;4379183;32;20207;-61
2022/05/22 03:36:52;;;;;;;0.70;0.70;;;;;;;17.34;66.77;95554.47;4378625;32;20196;-61
2022/05/22 03:39:17;;;;;;;1.60;1.03;;;;;;;17.18;67.45;95548.94;4378811;32;20245;-61
2022/05/22 03:41:42;;;;;;;0.40;0.40;;;;;;;17.09;68.11;95545.53;4378329;32;20246;-61
2022/05/22 03:44:08;;;;;;;0.53;0.53;;;;;;;16.95;67.50;95552.28;4384657;32;20177;-61
2022/05/22 03:46:34;;;;;;;0.70;0.70;;;;;;;17.02;68.35;95553.34;4381666;32;20199;-61
2022/05/22 03:49:00;;;;;;;0.53;0.53;;;;;;;17.17;68.25;95536.66;4383213;32;20254;-61
2022/05/22 03:51:26;;;;;;;1.10;1.00;;;;;;;17.10;67.47;95538.28;4379283;32;20251;-62
2022/05/22 03:53:51;;;;;;;0.87;0.70;;;;;;;17.01;67.77;95540.25;4382607;32;20188;-61
2022/05/22 03:56:18;;;;;;;0.70;0.70;;;;;;;16.99;68.96;95537.91;4383665;32;20181;-61
2022/05/22 03:58:44;;;;;;;0.30;0.30;;;;;;;16.85;68.34;95542.75;4380272;32;20199;-61
2022/05/22 04:01:09;;;;;;;0.83;0.83;;;;;;;16.94;68.96;95542.69;4380419;32;20252;-61
2022/05/22 04:03:35;;;;;;;0.57;0.57;;;;;;;16.94;68.01;95540.78;4371241;32;20189;-62
2022/05/22 04:06:02;;;;;;;3.70;0.60;;;;;;;16.92;68.46;95537.66;4376705;32;20197;-62
2022/05/22 04:08:28;;;;;;;4.30;1.03;;;;;;;16.81;70.14;95536.50;4385225;32;20259;-61
2022/05/22 04:10:54;;;;;;;0.50;0.50;;;;;;;16.82;69.62;95538.84;4376035;32;20227;-61
2022/05/22 04:13:19;;;;;;;1.13;1.13;;;;;;;16.63;68.60;95541.16;4381045;32;20211;-63
2022/05/22 04:15:46;;;;;;;0.73;0.73;;;;;;;16.50;70.01;95537.59;4372745;32;20185;-61
2022/05/22 04:18:12;;;;;;;0.97;0.87;;;;;;;16.53;69.79;95533.50;4384730;32;20199;-61
2022/05/22 04:20:37;;;;;;;0.73;0.73;;;;;;;16.42;71.46;95540.31;4380818;32;20185;-61
2022/05/22 04:25:55;;;;;;;1.07;1.07;;;;;;;16.57;70.62;95541.66;4384735;32;20199;-61
2022/05/22 04:28:21;;;;;;;0.90;0.90;;;;;;;16.41;72.41;95544.94;4377770;32;20181;-61
2022/05/22 04:30:46;;;;;;;0.83;0.77;;;;;;;16.63;72.45;95548.38;4378470;32;20200;-60
2022/05/22 04:33:11;;;;;;;0.67;0.67;;;;;;;16.61;71.24;95547.94;4369625;32;20205;-60
2022/05/22 04:35:37;;;;;;;0.50;0.50;;;;;;;16.65;71.42;95541.63;4380196;32;20250;-61
2022/05/22 04:38:03;;;;;;;0.43;0.43;;;;;;;16.70;71.38;95546.78;4380138;32;20200;-61
2022/05/22 04:40:28;;;;;;;0.30;0.30;;;;;;;16.81;72.09;95541.84;4379407;32;20188;-61
2022/05/22 04:42:53;;;;;;;0.83;0.70;;;;;;;16.79;70.88;95539.50;4377161;32;20254;-60
2022/05/22 04:45:19;;;;;;;0.43;0.43;;;;;;;16.78;70.54;95537.13;4379662;32;20192;-60
2022/05/22 04:47:44;;;;;;;0.60;0.60;;;;;;;16.76;70.40;95544.72;4386774;32;20193;-60
2022/05/22 04:50:12;;;;;;;0.63;0.63;;;;;;;16.69;68.77;95544.44;4383692;32;20177;-60
2022/05/22 04:52:38;;;;;;;0.50;0.50;;;;;;;16.54;69.93;95550.34;4370002;32;20188;-61
2022/05/22 04:55:05;;;;;;;0.77;0.43;;;;;;;16.22;69.97;95560.59;4381951;32;20282;-61
2022/05/22 04:57:30;;;;;;;0.60;0.60;;;;;;;16.32;72.51;95556.78;4372187;32;20263;-61
2022/05/22 04:59:56;;;;;;;0.50;0.50;;;;;;;16.54;72.56;95556.50;4376345;32;20207;-60
2022/05/22 05:02:24;;;;;;;0.97;0.97;;;;;;;16.69;72.75;95552.47;4382442;32;20188;-61
2022/05/22 05:04:54;;;;;;;1.33;0.97;;;;;;;16.74;72.13;95549.63;4390574;32;20196;-61
2022/05/22 05:07:20;;;;;;;0.60;0.60;;;;;;;16.72;70.51;95551.84;4383644;32;20180;-62
2022/05/22 05:09:45;;;;;;;0.63;0.63;;;;;;;16.71;69.99;95539.53;4388831;32;20180;-61
2022/05/22 05:12:11;;;;;;;0.60;0.60;;;;;;;16.67;69.80;95530.59;4377383;32;20204;-61
2022/05/22 05:14:37;;;;;;;0.63;0.63;;;;;;;16.76;71.30;95534.00;4380642;32;20219;-61
2022/05/22 05:17:13;;;;;;;0.53;0.53;;;;;;;16.74;70.20;95530.84;4393986;32;20185;-61
2022/05/22 05:19:38;;;;;;;0.50;0.50;;;;;;;16.87;71.58;95523.66;4376327;32;20210;-61
2022/05/22 05:22:04;;;;;;;0.77;0.77;;;;;;;16.88;69.81;95517.19;4381316;32;20185;-61
2022/05/22 05:24:29;;;;;;;0.63;0.47;;;;;;;16.84;68.20;95519.72;4391487;32;20188;-61
2022/05/22 05:30:17;;;;;;;0.50;0.50;;;;;;;16.99;69.90;95523.72;4369867;32;20207;-61
2022/05/22 05:32:42;;;;;;;0.30;0.30;;;;;;;17.10;68.60;95527.56;4375455;32;20247;-61
2022/05/22 05:35:10;;;;;;;0.70;0.70;;;;;;;17.28;68.73;95533.53;4386195;32;20191;-61
2022/05/22 05:37:35;;;;;;;0.57;0.57;;;;;;;17.31;68.33;95535.56;4375573;32;20211;-61
2022/05/22 05:40:01;;;;;;;0.37;0.37;;;;;;;17.21;65.90;95533.31;4389177;32;20247;-61
2022/05/22 05:42:32;;;;;;;0.33;0.33;;;;;;;17.33;68.46;95536.03;4395506;32;20238;-61
2022/05/22 05:44:57;;;;;;;0.50;0.50;;;;;;;17.43;67.77;95528.34;4377878;32;20189;-60
2022/05/22 05:47:22;;;;;;;0.57;0.57;;;;;;;17.35;65.64;95531.91;4373883;32;20456;-61
2022/05/22 05:49:47;;;;;;;7.63;0.83;;;;;;;17.46;65.85;95518.84;4377205;32;20189;-61
2022/05/22 05:52:13;;;;;;;0.50;0.50;;;;;;;17.42;65.72;95518.75;4378359;32;20189;-61
2022/05/22 05:54:38;;;;;;;0.50;0.50;;;;;;;17.65;66.62;95518.38;4377109;32;20201;-61
2022/05/22 05:57:04;;;;;;;0.33;0.33;;;;;;;17.77;65.58;95519.16;4377363;32;20227;-61
2022/05/22 05:59:29;;;;;;;0.33;0.33;;;;;;;17.87;65.34;95517.16;4381883;32;20192;-61
2022/05/22 06:01:54;;;;;;;0.53;0.53;;;;;;;17.77;65.07;95513.78;4376211;32;20208;-61
2022/05/22 06:04:20;;;;;;;0.40;0.40;;;;;;;17.74;64.08;95511.78;4377535;32;20189;-61
2022/05/22 06:06:46;;;;;;;0.60;0.60;;;;;;;17.78;63.66;95496.56;4396642;32;20199;-61
2022/05/22 06:09:12;;;;;;;0.83;0.83;;;;;;;17.66;62.81;95495.78;4383866;32;20199;-62
2022/05/22 06:11:37;;;;;;;0.17;0.17;;;;;;;17.83;63.87;95493.69;4383768;32;20211;-61
2022/05/22 06:14:02;;;;;;;0.30;0.30;;;;;;;17.93;65.09;95483.59;4392577;32;20250;-61
2022/05/22 06:16:28;;;;;;;0.43;0.43;;;;;;;18.02;63.16;95489.66;4379991;32;20199;-61
2022/05/22 06:18:54;;;;;;;2.83;0.77;;;;;;;18.08;63.96;95482.94;4398085;32;20267;-61
2022/05/22 06:21:21;;;;;;;0.67;0.67;;;;;;;18.21;64.47;95479.13;4381655;32;20193;-60
2022/05/22 06:23:47;;;;;;;0.60;0.60;;;;;;;18.37;64.15;95471.91;4379328;32;20192;-60
2022/05/22 06:26:14;;;;;;;0.20;0.20;;;;;;;18.30;61.43;95466.31;4374156;32;20252;-61
2022/05/22 06:28:40;;;;;;;8.50;1.07;;;;;;;18.33;57.56;95471.03;4398540;32;20297;-61
2022/05/22 06:31:07;;;;;;;0.97;0.83;;;;;;;18.41;61.21;95461.28;4392750;32;20192;-61
2022/05/22 06:33:33;;;;;;;0.60;0.60;;;;;;;18.66;62.07;95462.03;4375363;32;20197;-61
2022/05/22 06:35:59;;;;;;;0.40;0.40;;;;;;;18.66;61.60;95464.72;4385394;32;20243;-61
2022/05/22 06:41:10;;;;;;;3.83;1.10;;;;;;;18.81;57.86;95461.31;4377041;32;20200;-61
2022/05/22 06:43:36;;;;;;;0.10;0.10;;;;;;;18.74;59.04;95453.81;4379788;32;20188;-61
2022/05/22 06:46:04;;;;;;;0.30;0.30;;;;;;;18.75;59.54;95458.06;4397745;32;20286;-61
2022/05/22 06:48:30;;;;;;;0.60;0.43;;;;;;;18.87;59.10;95452.66;4383433;32;20202;-61
2022/05/22 06:50:55;;;;;;;0.10;0.10;;;;;;;18.98;59.52;95449.47;4379444;32;20188;-61
2022/05/22 06:53:21;;;;;;;0.73;0.60;;;;;;;18.69;54.61;95450.59;4376699;32;20234;-61
2022/05/22 06:55:46;;;;;;;4.13;0.40;;;;;;;18.96;60.34;95451.72;4378444;32;20238;-61
2022/05/22 06:58:12;;;;;;;0.27;0.27;;;;;;;18.90;57.96;95448.50;4382189;32;20192;-61
2022/05/22 07:00:37;;;;;;;0.40;0.40;;;;;;;19.00;54.54;95444.53;4391863;32;20251;-61
2022/05/22 07:03:03;;;;;;;0.10;0.10;;;;;;;18.74;56.08;95453.03;4370363;32;20235;-61
2022/05/22 07:05:29;;;;;;;0.40;0.40;;;;;;;18.99;58.37;95446.44;4375623;32;20192;-61
2022/05/22 07:07:54;;;;;;;1.20;0.83;;;;;;;19.16;59.35;95442.66;4384276;32;20238;-61
2022/05/22 07:11:38;;;;;;;0.60;0.60;;;;;;;19.33;58.61;95439.62;4379233;32;20303;-65
2022/05/22 07:13:05;;;;;;;1.23;0.40;;;;;;;19.33;58.13;95436.94;4377099;32;20196;-61
2022/05/22 07:15:30;;;;;;;0.83;0.50;;;;;;;19.34;57.62;95441.19;4382050;32;20219;-61
2022/05/22 07:17:56;;;;;;;1.00;0.43;;;;;;;19.38;58.81;95443.97;4373713;32;20184;-61
2022/05/22 07:20:21;;;;;;;0.50;0.50;;;;;;;19.23;55.19;95437.47;4378853;32;20287;-61
2022/05/22 07:22:46;;;;;;;0.37;0.37;;;;;;;18.96;55.09;95433.69;4376387;32;20196;-61
2022/05/22 07:25:11;;;;;;;0.77;0.77;;;;;;;19.13;59.42;95438.72;4387332;32;20184;-62
2022/05/22 07:27:37;;;;;;;0.93;0.40;;;;;;;19.10;56.57;95436.75;4380246;32;20185;-61
2022/05/22 07:30:02;;;;;;;0.37;0.37;;;;;;;19.15;56.45;95447.25;4385499;32;20195;-62
2022/05/22 07:32:28;;;;;;;1.40;1.23;;;;;;;19.02;55.23;95437.69;4378927;32;20222;-60
2022/05/22 07:34:53;;;;;;;0.87;0.87;;;;;;;19.22;58.37;95434.00;4381635;32;20216;-54
2022/05/22 07:37:18;;;;;;;0.80;0.80;;;;;;;19.51;62.80;95432.84;4378794;32;20277;-53
2022/05/22 07:39:44;;;;;;;3.40;1.73;;;;;;;19.58;55.98;95426.81;4380381;32;20208;-54
2022/05/22 07:42:09;;;;;;;1.57;0.63;;;;;;;19.81;63.22;95425.06;4375259;32;20295;-52
2022/05/22 07:44:35;;;;;;;13.53;5.17;;;;;;;19.77;54.99;95423.44;4375533;32;20208;-55
2022/05/22 07:47:00;;;;;;;0.47;0.47;;;;;;;20.08;63.43;95423.38;4386441;32;20192;-50
2022/05/22 07:52:10;;;;;;;1.30;0.93;;;;;;;19.62;52.46;95419.63;4374059;32;20287;-49
2022/05/22 07:54:38;;;;;;;0.30;0.30;;;;;;;19.67;56.85;95424.75;4384910;32;20256;-50
2022/05/22 07:57:04;;;;;;;2.30;1.90;;;;;;;19.69;57.01;95414.41;4388535;32;20190;-51
2022/05/22 07:59:34;;;;;;;7.20;2.70;;;;;;;19.72;62.34;95411.03;4381930;32;20201;-53
2022/05/22 08:01:59;;;;;;;2.23;0.63;;;;;;;19.83;60.46;95417.44;4378656;32;20219;-53
2022/05/22 08:04:25;;;;;;;0.37;0.37;;;;;;;19.98;56.95;95413.13;4391680;32;20185;-51
2022/05/22 08:06:50;;;;;;;0.20;0.20;;;;;;;20.03;55.44;95406.72;4377803;32;20180;-49
2022/05/22 08:09:16;;;;;;;0.50;0.50;;;;;;;19.92;53.52;95409.19;4383785;32;20211;-48
2022/05/22 08:11:41;;;;;;;0.37;0.37;;;;;;;20.09;52.82;95400.72;4385602;32;20177;-50
2022/05/22 08:14:06;;;;;;;0.73;0.73;;;;;;;19.89;50.72;95407.19;4393242;32;20219;-50
2022/05/22 08:16:32;;;;;;;2.63;0.63;;;;;;;19.56;53.48;95402.16;4379069;32;20221;-52
2022/05/22 08:18:57;;;;;;;0.53;0.53;;;;;;;19.45;51.87;95409.19;4375401;32;20193;-53
2022/05/22 08:21:23;;;;;;;4.23;1.20;;;;;;;19.38;51.43;95392.84;4383762;32;20181;-51
2022/05/22 08:23:49;;;;;;;0.93;0.47;;;;;;;19.54;56.59;95404.41;4385169;32;20309;-48
2022/05/22 08:26:15;;;;;;;0.40;0.40;;;;;;;19.64;52.52;95398.53;4376031;32;20246;-51
2022/05/22 08:28:40;;;;;;;1.17;0.47;;;;;;;19.95;58.52;95388.84;4388809;32;20188;-51
2022/05/22 08:31:06;;;;;;;0.20;0.20;;;;;;;19.92;55.30;95378.78;4393036;32;20247;-53
2022/05/22 08:33:31;;;;;;;0.70;0.70;;;;;;;19.97;52.53;95386.56;4387197;32;20189;-51
2022/05/22 08:35:57;;;;;;;0.37;0.37;;;;;;;19.93;52.98;95383.03;4378444;32;20172;-51
2022/05/22 08:38:22;;;;;;;0.33;0.33;;;;;;;19.88;52.40;95382.16;4386211;32;20189;-52
2022/05/22 08:41:06;;;;;;;0.40;0.40;;;;;;;19.65;48.40;95386.62;4376435;32;20185;-50
2022/05/22 08:43:47;;;;;;;1.40;0.60;;;;;;;19.70;48.40;95378.28;4377177;32;20242;-51
2022/05/22 08:46:18;;;;;;;0.60;0.60;;;;;;;19.59;49.24;95379.94;4377282;32;20247;-49
2022/05/22 08:48:52;;;;;;;0.20;0.20;;;;;;;19.77;52.78;95383.81;4374089;32;20222;-52
2022/05/22 08:51:31;;;;;;;0.47;0.47;;;;;;;19.67;48.83;95376.28;4380262;32;20256;-51
2022/05/22 08:54:05;;;;;;;0.33;0.33;;;;;;;19.77;49.64;95375.75;4388431;32;20173;-52
2022/05/22 08:59:34;;;;;;;0.20;0.20;;;;;;;19.87;51.13;95372.53;4378061;32;20206;-52
2022/05/22 09:02:43;;;;;;;1.03;0.07;;;;;;;19.96;52.92;95366.16;4376139;32;20188;-51
2022/05/22 09:05:19;;;;;;;0.20;0.20;;;;;;;19.89;49.61;95362.19;4383537;32;20260;-46
2022/05/22 09:07:59;;;;;;;0.30;0.30;;;;;;;19.87;49.22;95364.44;4380450;32;20184;-52
2022/05/22 09:10:44;;;;;;;0.30;0.30;;;;;;;19.85;48.78;95366.69;4378170;32;20224;-52
2022/05/22 09:13:15;;;;;;;0.20;0.20;;;;;;;19.94;52.15;95368.44;4393003;32;20232;-49
2022/05/22 09:15:49;;;;;;;2.80;0.80;;;;;;;19.78;49.50;95365.75;4399383;32;20195;-52
2022/05/22 09:18:33;;;;;;;0.63;0.63;;;;;;;19.90;49.33;95369.13;4374043;32;20222;-52
2022/05/22 09:21:10;;;;;;;0.30;0.30;;;;;;;19.97;49.36;95367.72;4382143;32;20185;-52
2022/05/22 09:23:42;;;;;;;1.70;0.50;;;;;;;20.06;54.64;95366.37;4378697;32;20230;-52
2022/05/22 09:26:29;;;;;;;0.20;0.20;;;;;;;20.02;49.69;95353.97;4389141;32;20207;-51
2022/05/22 09:29:13;;;;;;;0.70;0.70;;;;;;;20.01;50.28;95358.56;4386019;32;20220;-52
2022/05/22 09:31:59;;;;;;;0.13;0.13;;;;;;;20.07;49.58;95351.00;4390538;32;20188;-52
2022/05/22 09:34:58;;;;;;;0.10;0.10;;;;;;;20.17;51.69;95350.44;4374833;32;20228;-50
2022/05/22 09:37:44;;;;;;;0.30;0.30;;;;;;;20.20;50.45;95350.50;4364491;32;20291;-51
2022/05/22 09:40:34;;;;;;;0.67;0.67;;;;;;;20.05;49.41;95345.97;4372455;32;20326;-53
2022/05/22 09:43:11;;;;;;;0.70;0.70;;;;;;;20.16;50.11;95338.13;4376330;32;20215;-50
2022/05/22 09:46:04;;;;;;;0.30;0.30;;;;;;;20.25;48.74;95346.75;4382014;32;20185;-52
2022/05/22 09:48:59;;;;;;;0.50;0.47;;;;;;;20.25;49.66;95339.47;4370858;32;20242;-52
2022/05/22 09:51:58;;;;;;;0.73;0.60;;;;;;;20.48;51.91;95334.16;4386050;32;20234;-51
2022/05/22 09:55:01;;;;;;;0.50;0.50;;;;;;;20.35;50.12;95329.25;4387495;32;20196;-53
2022/05/22 09:57:59;;;;;;;1.53;0.67;;;;;;;20.39;48.60;95322.03;4369575;32;20263;-52
2022/05/22 10:00:35;;;;;;;0.33;0.33;;;;;;;20.55;48.14;95312.75;4388272;32;20231;-53
2022/05/22 10:03:08;;;;;;;0.30;0.30;;;;;;;20.56;48.35;95308.91;4384313;32;20194;-51
2022/05/22 10:06:12;;;;;;;0.20;0.20;;;;;;;20.57;49.37;95307.00;4391214;32;20228;-52
2022/05/22 10:08:43;;;;;;;1.13;0.70;;;;;;;20.73;50.92;95299.59;4366765;32;20203;-49
2022/05/22 10:11:36;;;;;;;0.30;0.30;;;;;;;20.78;49.01;95310.09;4376113;32;20188;-53
2022/05/22 10:14:27;;;;;;;0.30;0.30;;;;;;;20.90;48.00;95304.50;4374012;32;20196;-50
2022/05/22 10:17:30;;;;;;;0.40;0.40;;;;;;;20.86;46.89;95298.25;4393238;32;20181;-53
2022/05/22 10:20:25;;;;;;;1.20;0.43;;;;;;;20.95;46.62;95289.94;4366129;32;20184;-51
2022/05/22 10:23:20;;;;;;;0.20;0.20;;;;;;;20.97;50.86;95301.16;4384567;32;20196;-50
2022/05/22 10:26:04;;;;;;;7.63;0.37;;;;;;;20.96;48.92;95294.22;4366413;32;20188;-51
2022/05/22 10:28:35;;;;;;;0.07;0.07;;;;;;;21.02;52.54;95292.75;4369836;32;20252;-52
2022/05/22 10:31:07;;;;;;;0.10;0.10;;;;;;;21.02;47.97;95294.66;4371058;32;20188;-51
2022/05/22 10:33:38;;;;;;;0.20;0.20;;;;;;;21.09;51.67;95287.47;4393149;32;20232;-52
2022/05/22 10:36:12;;;;;;;0.33;0.33;;;;;;;21.11;51.54;95293.28;4375181;32;20244;-53
2022/05/22 10:38:43;;;;;;;0.30;0.30;;;;;;;21.11;46.53;95292.50;4366559;32;20211;-51
2022/05/22 10:44:31;;;;;;;0.30;0.30;;;;;;;21.13;45.12;95282.91;4379904;32;20195;-53
2022/05/22 10:46:59;;;;;;;0.80;0.80;;;;;;;21.28;51.32;95278.53;4392416;32;20196;-51
2022/05/22 10:49:44;;;;;;;0.27;0.27;;;;;;;21.27;52.15;95280.47;4372756;32;20217;-49
2022/05/22 10:52:21;;;;;;;0.10;0.10;;;;;;;21.27;47.54;95260.78;4378086;32;20205;-51
2022/05/22 10:54:53;;;;;;;0.40;0.40;;;;;;;21.29;46.99;95261.22;4365608;32;20211;-51
2022/05/22 10:57:28;;;;;;;0.10;0.10;;;;;;;21.32;46.52;95260.50;4370467;32;20196;-53
2022/05/22 10:59:54;;;;;;;0.20;0.20;;;;;;;21.35;45.41;95257.06;4388935;32;20206;-52
2022/05/22 11:02:24;;;;;;;0.50;0.50;;;;;;;21.31;43.95;95255.44;4366899;32;20216;-47
2022/05/22 11:04:51;;;;;;;0.43;0.43;;;;;;;21.37;49.72;95249.38;4367033;32;20215;-51
2022/05/22 11:07:29;;;;;;;2.97;0.50;;;;;;;21.45;42.48;95247.56;4372153;32;20184;-51
2022/05/22 11:09:56;;;;;;;1.13;0.33;;;;;;;21.46;48.93;95236.38;4373918;32;20231;-54
2022/05/22 11:12:25;;;;;;;0.10;0.10;;;;;;;21.47;44.84;95231.78;4382242;32;20211;-52
2022/05/22 11:14:50;;;;;;;0.60;0.60;;;;;;;21.47;44.59;95237.16;4369788;32;20195;-50
2022/05/22 11:17:21;;;;;;;0.30;0.30;;;;;;;21.47;42.97;95232.56;4371533;32;20176;-52
2022/05/22 11:19:49;;;;;;;0.20;0.20;;;;;;;21.44;48.08;95232.50;4377326;32;20268;-53
2022/05/22 11:22:17;;;;;;;0.10;0.10;;;;;;;21.38;43.55;95223.97;4368872;32;20195;-53
2022/05/22 11:25:03;;;;;;;0.23;0.23;;;;;;;21.35;44.18;95216.59;4382097;32;20205;-54
2022/05/22 11:27:42;;;;;;;1.10;0.40;;;;;;;21.53;46.52;95212.19;4374785;32;20172;-49
2022/05/22 11:30:18;;;;;;;0.73;0.73;;;;;;;21.60;42.20;95203.44;4375905;32;20276;-54
2022/05/22 11:33:07;;;;;;;0.10;0.10;;;;;;;21.83;41.72;95217.56;4396879;32;20207;-55
2022/05/22 11:35:48;;;;;;;0.37;0.37;;;;;;;21.62;41.54;95218.09;4375450;32;20220;-52
2022/05/22 11:38:22;;;;;;;0.57;0.57;;;;;;;;;;4381167;32;20188;-55
2022/05/22 11:41:13;;;;;;;0.30;0.30;;;;;;;21.57;43.41;95220.34;4395062;32;20271;-55
2022/05/22 11:44:03;;;;;;;0.10;0.10;;;;;;;21.56;42.66;95213.41;4373866;32;20211;-52
2022/05/22 11:47:13;;;;;;;0.33;0.17;;;;;;;21.57;42.41;95215.72;4370488;32;20264;-54
2022/05/22 11:50:16;;;;;;;0.57;0.50;;;;;;;21.55;43.58;95209.91;4384171;32;20196;-51
2022/05/22 11:53:11;;;;;;;0.57;0.57;;;;;;;21.60;42.97;95211.53;4384257;32;20255;-51
2022/05/22 11:55:49;;;;;;;0.50;0.50;;;;;;;21.57;43.54;95193.34;4385902;32;20203;-53
2022/05/22 11:58:23;;;;;;;0.27;0.27;;;;;;;21.55;46.37;95195.62;4389210;32;20203;-52
2022/05/22 12:01:04;;;;;;;0.50;0.50;;;;;;;21.55;42.35;95184.84;4393411;32;20187;-52
2022/05/22 12:04:00;;;;;;;0.33;0.33;;;;;;;21.61;42.40;95186.09;4380982;32;20214;-51
2022/05/22 12:06:44;;;;;;;0.30;0.30;;;;;;;21.80;43.63;95185.94;4381630;32;20215;-52